Nf67 Femarnbaelt II — OU3102 — position and weather

sailwx.info

Track history (hours):
 
Tides and Currents Weather Stations Pressure Air Temp Water Temp Dewpoint Dewpoint Depression Visibility Wind Speed Wind Dir Waves Ship Positions

Nf67 Femarnbaelt II

Last reported at 2016-Aug-31 16:10 UTC. Time now 2016-Aug-31 23:31 UTC.
Position N 57°51' E 009°49'.

Length 15 m.

Type: Fishing. MMSI: 219012459.

Date/timePositionNaut miles runAvg speedWind from/ knotsBaromVisibWave heightAir tempDewpointWater temp
2016-Aug-31 16:10N 57°51' E 009°49'0 0.3
2016-Aug-31 15:33N 57°51' E 009°50'2 2.3
2016-Aug-31 14:33N 57°50' E 009°54'14 0.3
2016-Aug-29 13:33N 57°36' E 009°57'0 0.0
2016-Aug-29 12:30N 57°36' E 009°57'17 0.4
2016-Aug-27 19:33N 57°51' E 009°43'1 1.2
2016-Aug-27 18:30N 57°51' E 009°46'17 0.8
2016-Aug-26 21:32N 57°36' E 009°57'0 0.0
2016-Aug-26 20:29N 57°36' E 009°57'0 0.0
2016-Aug-26 03:06N 57°36' E 009°57'0 0.0
2016-Aug-26 02:09N 57°36' E 009°57'2 0.5
2016-Aug-25 21:33N 57°38' E 009°56'5 4.9
2016-Aug-25 20:33N 57°42' E 009°52'6 6.4
2016-Aug-25 19:33N 57°47' E 009°45'  
2016-Aug-22 14:04N 57°36' E 009°57'0 0.0
2016-Aug-22 13:31N 57°36' E 009°57'0 0.0
2016-Aug-22 12:31N 57°36' E 009°57'  
Track history (hours):
 
Tides and Currents Weather Stations Pressure Air Temp Water Temp Dewpoint Dewpoint Depression Visibility Wind Speed Wind Dir Waves Ship Positions

Nf67 Femarnbaelt II

Last reported at 2016-Aug-31 16:10 UTC. Time now 2016-Aug-31 23:31 UTC.
Position N 57°51' E 009°49'.

Length 15 m.

Type: Fishing. MMSI: 219012459.

Date/timePositionNaut miles runAvg speedWind from/ knotsBaromVisibWave heightAir tempDewpointWater temp
2016-Aug-31 16:10N 57°51' E 009°49'0 0.3
2016-Aug-31 15:33N 57°51' E 009°50'2 2.3
2016-Aug-31 14:33N 57°50' E 009°54'14 0.3
2016-Aug-29 13:33N 57°36' E 009°57'0 0.0
2016-Aug-29 12:30N 57°36' E 009°57'17 0.4
2016-Aug-27 19:33N 57°51' E 009°43'1 1.2
2016-Aug-27 18:30N 57°51' E 009°46'17 0.8
2016-Aug-26 21:32N 57°36' E 009°57'0 0.0
2016-Aug-26 20:29N 57°36' E 009°57'0 0.0
2016-Aug-26 03:06N 57°36' E 009°57'0 0.0
2016-Aug-26 02:09N 57°36' E 009°57'2 0.5
2016-Aug-25 21:33N 57°38' E 009°56'5 4.9
2016-Aug-25 20:33N 57°42' E 009°52'6 6.4
2016-Aug-25 19:33N 57°47' E 009°45'  
2016-Aug-22 14:04N 57°36' E 009°57'0 0.0
2016-Aug-22 13:31N 57°36' E 009°57'0 0.0
2016-Aug-22 12:31N 57°36' E 009°57'  

Dump ship's entire track history